sensor_id;sensor_type;location;lat;lon;timestamp;P1;durP1;ratioP1;P2;durP2;ratioP2
20008;SDS011;10165;42.662;23.260;2023-05-29T00:00:36;4.60;;;2.70;;
20008;SDS011;10165;42.662;23.260;2023-05-29T00:03:03;3.40;;;2.87;;
20008;SDS011;10165;42.662;23.260;2023-05-29T00:05:31;5.40;;;2.60;;
20008;SDS011;10165;42.662;23.260;2023-05-29T00:07:58;6.17;;;3.07;;
20008;SDS011;10165;42.662;23.260;2023-05-29T00:10:25;5.17;;;2.97;;
20008;SDS011;10165;42.662;23.260;2023-05-29T00:12:52;3.93;;;3.17;;
20008;SDS011;10165;42.662;23.260;2023-05-29T00:15:18;2.77;;;2.53;;
20008;SDS011;10165;42.662;23.260;2023-05-29T00:17:45;5.37;;;2.90;;
20008;SDS011;10165;42.662;23.260;2023-05-29T00:20:12;5.37;;;3.03;;
20008;SDS011;10165;42.662;23.260;2023-05-29T00:22:39;7.07;;;3.00;;
20008;SDS011;10165;42.662;23.260;2023-05-29T00:25:07;8.07;;;3.03;;
20008;SDS011;10165;42.662;23.260;2023-05-29T00:27:34;3.57;;;2.77;;
20008;SDS011;10165;42.662;23.260;2023-05-29T00:30:02;4.13;;;2.77;;
20008;SDS011;10165;42.662;23.260;2023-05-29T00:32:30;3.27;;;2.67;;
20008;SDS011;10165;42.662;23.260;2023-05-29T00:34:57;4.87;;;3.10;;
20008;SDS011;10165;42.662;23.260;2023-05-29T00:37:24;5.03;;;2.80;;
20008;SDS011;10165;42.662;23.260;2023-05-29T00:39:52;4.87;;;3.27;;
20008;SDS011;10165;42.662;23.260;2023-05-29T00:42:18;5.23;;;3.20;;
20008;SDS011;10165;42.662;23.260;2023-05-29T00:44:45;5.60;;;3.33;;
20008;SDS011;10165;42.662;23.260;2023-05-29T00:47:12;4.73;;;3.00;;
20008;SDS011;10165;42.662;23.260;2023-05-29T00:49:39;3.87;;;3.00;;
20008;SDS011;10165;42.662;23.260;2023-05-29T00:52:06;4.00;;;3.27;;
20008;SDS011;10165;42.662;23.260;2023-05-29T00:54:35;6.10;;;3.93;;
20008;SDS011;10165;42.662;23.260;2023-05-29T00:57:02;4.07;;;2.80;;
20008;SDS011;10165;42.662;23.260;2023-05-29T00:59:32;3.90;;;3.23;;
20008;SDS011;10165;42.662;23.260;2023-05-29T01:02:00;4.13;;;3.40;;
20008;SDS011;10165;42.662;23.260;2023-05-29T01:04:29;6.30;;;3.50;;
20008;SDS011;10165;42.662;23.260;2023-05-29T01:06:55;4.57;;;3.20;;
20008;SDS011;10165;42.662;23.260;2023-05-29T01:09:23;5.50;;;3.70;;
20008;SDS011;10165;42.662;23.260;2023-05-29T01:15:04;4.97;;;3.07;;
20008;SDS011;10165;42.662;23.260;2023-05-29T01:20:41;3.20;;;2.90;;
20008;SDS011;10165;42.662;23.260;2023-05-29T01:28:42;4.93;;;3.30;;
20008;SDS011;10165;42.662;23.260;2023-05-29T01:31:14;7.80;;;3.40;;
20008;SDS011;10165;42.662;23.260;2023-05-29T01:33:51;9.60;;;3.10;;
20008;SDS011;10165;42.662;23.260;2023-05-29T01:36:25;5.40;;;3.13;;
20008;SDS011;10165;42.662;23.260;2023-05-29T01:38:53;4.37;;;3.17;;
20008;SDS011;10165;42.662;23.260;2023-05-29T01:41:22;5.70;;;3.30;;
20008;SDS011;10165;42.662;23.260;2023-05-29T01:43:51;3.47;;;3.10;;
20008;SDS011;10165;42.662;23.260;2023-05-29T01:46:18;8.57;;;3.87;;
20008;SDS011;10165;42.662;23.260;2023-05-29T01:48:47;4.73;;;3.43;;
20008;SDS011;10165;42.662;23.260;2023-05-29T01:51:13;3.97;;;3.17;;
20008;SDS011;10165;42.662;23.260;2023-05-29T01:53:41;4.17;;;3.03;;
20008;SDS011;10165;42.662;23.260;2023-05-29T01:56:08;3.50;;;3.17;;
20008;SDS011;10165;42.662;23.260;2023-05-29T01:58:36;4.20;;;3.33;;
20008;SDS011;10165;42.662;23.260;2023-05-29T02:01:05;6.20;;;3.33;;
20008;SDS011;10165;42.662;23.260;2023-05-29T02:03:33;8.60;;;3.50;;
20008;SDS011;10165;42.662;23.260;2023-05-29T02:06:01;4.27;;;3.47;;
20008;SDS011;10165;42.662;23.260;2023-05-29T02:08:28;4.13;;;3.50;;
20008;SDS011;10165;42.662;23.260;2023-05-29T02:10:55;4.53;;;3.80;;
20008;SDS011;10165;42.662;23.260;2023-05-29T02:13:22;5.37;;;3.83;;
20008;SDS011;10165;42.662;23.260;2023-05-29T02:15:49;8.70;;;3.63;;
20008;SDS011;10165;42.662;23.260;2023-05-29T02:18:16;3.93;;;3.20;;
20008;SDS011;10165;42.662;23.260;2023-05-29T02:20:46;5.37;;;3.43;;
20008;SDS011;10165;42.662;23.260;2023-05-29T02:23:13;4.93;;;4.00;;
20008;SDS011;10165;42.662;23.260;2023-05-29T02:25:41;6.17;;;3.53;;
20008;SDS011;10165;42.662;23.260;2023-05-29T02:28:08;7.07;;;3.60;;
20008;SDS011;10165;42.662;23.260;2023-05-29T02:30:35;6.93;;;3.67;;
20008;SDS011;10165;42.662;23.260;2023-05-29T02:33:02;7.83;;;4.20;;
20008;SDS011;10165;42.662;23.260;2023-05-29T02:35:29;5.83;;;4.10;;
20008;SDS011;10165;42.662;23.260;2023-05-29T02:37:56;7.27;;;4.50;;
20008;SDS011;10165;42.662;23.260;2023-05-29T02:40:23;6.27;;;4.37;;
20008;SDS011;10165;42.662;23.260;2023-05-29T02:42:50;5.17;;;3.40;;
20008;SDS011;10165;42.662;23.260;2023-05-29T02:45:17;7.83;;;4.17;;
20008;SDS011;10165;42.662;23.260;2023-05-29T02:47:44;5.63;;;3.97;;
20008;SDS011;10165;42.662;23.260;2023-05-29T02:50:11;5.17;;;3.90;;
20008;SDS011;10165;42.662;23.260;2023-05-29T02:52:37;5.97;;;4.30;;
20008;SDS011;10165;42.662;23.260;2023-05-29T02:55:04;7.07;;;4.17;;
20008;SDS011;10165;42.662;23.260;2023-05-29T02:57:32;6.27;;;4.60;;
20008;SDS011;10165;42.662;23.260;2023-05-29T02:59:59;7.23;;;4.67;;
20008;SDS011;10165;42.662;23.260;2023-05-29T03:02:27;7.90;;;4.37;;
20008;SDS011;10165;42.662;23.260;2023-05-29T03:04:54;5.50;;;3.73;;
20008;SDS011;10165;42.662;23.260;2023-05-29T03:07:21;6.13;;;4.43;;
20008;SDS011;10165;42.662;23.260;2023-05-29T03:09:48;6.90;;;4.50;;
20008;SDS011;10165;42.662;23.260;2023-05-29T03:12:14;13.03;;;5.10;;
20008;SDS011;10165;42.662;23.260;2023-05-29T03:14:43;8.40;;;4.83;;
20008;SDS011;10165;42.662;23.260;2023-05-29T03:17:09;8.20;;;4.50;;
20008;SDS011;10165;42.662;23.260;2023-05-29T03:19:36;6.97;;;4.87;;
20008;SDS011;10165;42.662;23.260;2023-05-29T03:22:05;5.63;;;4.30;;
20008;SDS011;10165;42.662;23.260;2023-05-29T03:24:31;5.43;;;3.93;;
20008;SDS011;10165;42.662;23.260;2023-05-29T03:27:01;4.67;;;3.87;;
20008;SDS011;10165;42.662;23.260;2023-05-29T03:29:30;6.30;;;4.10;;
20008;SDS011;10165;42.662;23.260;2023-05-29T03:31:58;11.50;;;4.33;;
20008;SDS011;10165;42.662;23.260;2023-05-29T03:34:25;4.13;;;3.70;;
20008;SDS011;10165;42.662;23.260;2023-05-29T03:36:53;5.70;;;3.97;;
20008;SDS011;10165;42.662;23.260;2023-05-29T03:39:20;5.10;;;4.50;;
20008;SDS011;10165;42.662;23.260;2023-05-29T03:41:46;8.10;;;4.43;;
20008;SDS011;10165;42.662;23.260;2023-05-29T03:44:13;6.47;;;3.93;;
20008;SDS011;10165;42.662;23.260;2023-05-29T03:46:40;6.50;;;3.80;;
20008;SDS011;10165;42.662;23.260;2023-05-29T03:49:09;7.93;;;3.80;;
20008;SDS011;10165;42.662;23.260;2023-05-29T03:51:36;8.17;;;4.90;;
20008;SDS011;10165;42.662;23.260;2023-05-29T03:54:03;11.60;;;4.93;;
20008;SDS011;10165;42.662;23.260;2023-05-29T03:56:29;7.00;;;4.83;;
20008;SDS011;10165;42.662;23.260;2023-05-29T03:58:56;7.47;;;4.50;;
20008;SDS011;10165;42.662;23.260;2023-05-29T04:01:23;8.00;;;4.57;;
20008;SDS011;10165;42.662;23.260;2023-05-29T04:03:50;9.17;;;5.00;;
20008;SDS011;10165;42.662;23.260;2023-05-29T04:06:17;11.50;;;5.20;;
20008;SDS011;10165;42.662;23.260;2023-05-29T04:08:44;7.63;;;5.33;;
20008;SDS011;10165;42.662;23.260;2023-05-29T04:11:11;7.67;;;4.90;;
20008;SDS011;10165;42.662;23.260;2023-05-29T04:13:38;9.13;;;5.23;;
20008;SDS011;10165;42.662;23.260;2023-05-29T04:16:06;13.97;;;4.57;;
20008;SDS011;10165;42.662;23.260;2023-05-29T04:18:33;12.60;;;5.23;;
20008;SDS011;10165;42.662;23.260;2023-05-29T04:21:00;8.73;;;4.20;;
20008;SDS011;10165;42.662;23.260;2023-05-29T04:23:27;5.43;;;4.20;;
20008;SDS011;10165;42.662;23.260;2023-05-29T04:25:54;6.23;;;3.93;;
20008;SDS011;10165;42.662;23.260;2023-05-29T04:28:20;11.80;;;5.87;;
20008;SDS011;10165;42.662;23.260;2023-05-29T04:30:48;10.83;;;5.50;;
20008;SDS011;10165;42.662;23.260;2023-05-29T04:33:14;11.13;;;6.17;;
20008;SDS011;10165;42.662;23.260;2023-05-29T04:35:41;13.40;;;5.17;;
20008;SDS011;10165;42.662;23.260;2023-05-29T04:38:11;7.80;;;4.60;;
20008;SDS011;10165;42.662;23.260;2023-05-29T04:40:38;7.07;;;5.67;;
20008;SDS011;10165;42.662;23.260;2023-05-29T04:43:06;13.07;;;5.37;;
20008;SDS011;10165;42.662;23.260;2023-05-29T04:45:34;10.17;;;5.03;;
20008;SDS011;10165;42.662;23.260;2023-05-29T04:48:03;9.10;;;5.43;;
20008;SDS011;10165;42.662;23.260;2023-05-29T04:50:30;11.03;;;5.70;;
20008;SDS011;10165;42.662;23.260;2023-05-29T04:52:57;10.17;;;5.00;;
20008;SDS011;10165;42.662;23.260;2023-05-29T04:55:24;10.53;;;5.90;;
20008;SDS011;10165;42.662;23.260;2023-05-29T04:57:51;10.40;;;5.73;;
20008;SDS011;10165;42.662;23.260;2023-05-29T05:00:19;7.93;;;5.30;;
20008;SDS011;10165;42.662;23.260;2023-05-29T05:02:46;14.83;;;5.87;;
20008;SDS011;10165;42.662;23.260;2023-05-29T05:05:13;13.20;;;6.90;;
20008;SDS011;10165;42.662;23.260;2023-05-29T05:07:39;9.47;;;6.50;;
20008;SDS011;10165;42.662;23.260;2023-05-29T05:10:06;10.67;;;6.53;;
20008;SDS011;10165;42.662;23.260;2023-05-29T05:12:34;13.63;;;6.10;;
20008;SDS011;10165;42.662;23.260;2023-05-29T05:15:00;9.43;;;5.50;;
20008;SDS011;10165;42.662;23.260;2023-05-29T05:17:27;9.13;;;5.90;;
20008;SDS011;10165;42.662;23.260;2023-05-29T05:19:54;20.43;;;7.17;;
20008;SDS011;10165;42.662;23.260;2023-05-29T05:22:20;15.63;;;6.57;;
20008;SDS011;10165;42.662;23.260;2023-05-29T05:24:47;12.20;;;6.83;;
20008;SDS011;10165;42.662;23.260;2023-05-29T05:27:14;10.97;;;7.43;;
20008;SDS011;10165;42.662;23.260;2023-05-29T05:29:41;10.23;;;5.73;;
20008;SDS011;10165;42.662;23.260;2023-05-29T05:32:07;16.63;;;6.43;;
20008;SDS011;10165;42.662;23.260;2023-05-29T05:34:34;16.50;;;7.57;;
20008;SDS011;10165;42.662;23.260;2023-05-29T05:37:01;13.03;;;7.30;;
20008;SDS011;10165;42.662;23.260;2023-05-29T05:39:29;11.27;;;6.50;;
20008;SDS011;10165;42.662;23.260;2023-05-29T05:41:56;15.67;;;7.83;;
20008;SDS011;10165;42.662;23.260;2023-05-29T05:44:22;13.60;;;6.80;;
20008;SDS011;10165;42.662;23.260;2023-05-29T05:46:49;14.20;;;6.77;;
20008;SDS011;10165;42.662;23.260;2023-05-29T05:49:15;12.13;;;7.03;;
20008;SDS011;10165;42.662;23.260;2023-05-29T05:51:42;14.47;;;6.67;;
20008;SDS011;10165;42.662;23.260;2023-05-29T05:54:09;11.33;;;6.30;;
20008;SDS011;10165;42.662;23.260;2023-05-29T05:56:36;16.87;;;6.90;;
20008;SDS011;10165;42.662;23.260;2023-05-29T05:59:03;7.83;;;5.80;;
20008;SDS011;10165;42.662;23.260;2023-05-29T06:01:29;5.57;;;4.63;;
20008;SDS011;10165;42.662;23.260;2023-05-29T06:03:56;10.77;;;4.43;;
20008;SDS011;10165;42.662;23.260;2023-05-29T06:06:23;10.37;;;4.57;;
20008;SDS011;10165;42.662;23.260;2023-05-29T06:08:50;5.93;;;3.67;;
20008;SDS011;10165;42.662;23.260;2023-05-29T06:11:17;8.23;;;3.83;;
20008;SDS011;10165;42.662;23.260;2023-05-29T06:13:43;7.97;;;4.87;;
20008;SDS011;10165;42.662;23.260;2023-05-29T06:16:10;8.03;;;4.30;;
20008;SDS011;10165;42.662;23.260;2023-05-29T06:18:37;8.63;;;4.73;;
20008;SDS011;10165;42.662;23.260;2023-05-29T06:21:04;8.27;;;3.77;;
20008;SDS011;10165;42.662;23.260;2023-05-29T06:23:32;6.47;;;3.97;;
20008;SDS011;10165;42.662;23.260;2023-05-29T06:25:59;5.90;;;3.87;;
20008;SDS011;10165;42.662;23.260;2023-05-29T06:28:26;4.37;;;3.13;;
20008;SDS011;10165;42.662;23.260;2023-05-29T06:30:53;3.70;;;3.30;;
20008;SDS011;10165;42.662;23.260;2023-05-29T06:33:20;6.23;;;3.10;;
20008;SDS011;10165;42.662;23.260;2023-05-29T06:35:48;5.47;;;3.40;;
20008;SDS011;10165;42.662;23.260;2023-05-29T06:38:15;5.50;;;3.73;;
20008;SDS011;10165;42.662;23.260;2023-05-29T06:40:41;9.00;;;3.43;;
20008;SDS011;10165;42.662;23.260;2023-05-29T06:43:08;4.90;;;2.73;;
20008;SDS011;10165;42.662;23.260;2023-05-29T06:45:38;3.93;;;3.13;;
20008;SDS011;10165;42.662;23.260;2023-05-29T06:48:05;5.50;;;3.50;;
20008;SDS011;10165;42.662;23.260;2023-05-29T06:50:32;8.60;;;3.63;;
20008;SDS011;10165;42.662;23.260;2023-05-29T06:53:00;6.37;;;3.10;;
20008;SDS011;10165;42.662;23.260;2023-05-29T06:55:27;5.27;;;3.07;;
20008;SDS011;10165;42.662;23.260;2023-05-29T06:57:54;4.83;;;4.17;;
20008;SDS011;10165;42.662;23.260;2023-05-29T07:00:20;9.37;;;3.83;;
20008;SDS011;10165;42.662;23.260;2023-05-29T07:02:47;4.30;;;2.70;;
20008;SDS011;10165;42.662;23.260;2023-05-29T07:05:14;4.07;;;2.50;;
20008;SDS011;10165;42.662;23.260;2023-05-29T07:07:41;2.27;;;1.93;;
20008;SDS011;10165;42.662;23.260;2023-05-29T07:10:08;6.07;;;2.50;;
20008;SDS011;10165;42.662;23.260;2023-05-29T07:12:35;2.67;;;2.27;;
20008;SDS011;10165;42.662;23.260;2023-05-29T07:15:01;3.13;;;2.37;;
20008;SDS011;10165;42.662;23.260;2023-05-29T07:17:28;2.97;;;2.20;;
20008;SDS011;10165;42.662;23.260;2023-05-29T07:19:55;3.90;;;2.10;;
20008;SDS011;10165;42.662;23.260;2023-05-29T07:22:24;2.63;;;2.17;;
20008;SDS011;10165;42.662;23.260;2023-05-29T07:24:51;2.50;;;1.90;;
20008;SDS011;10165;42.662;23.260;2023-05-29T07:27:17;2.07;;;1.80;;
20008;SDS011;10165;42.662;23.260;2023-05-29T07:29:44;6.17;;;1.80;;
20008;SDS011;10165;42.662;23.260;2023-05-29T07:32:11;3.80;;;2.40;;
20008;SDS011;10165;42.662;23.260;2023-05-29T07:34:38;7.47;;;2.83;;
20008;SDS011;10165;42.662;23.260;2023-05-29T07:37:05;4.60;;;2.60;;
20008;SDS011;10165;42.662;23.260;2023-05-29T07:39:35;3.20;;;2.30;;
20008;SDS011;10165;42.662;23.260;2023-05-29T07:42:02;4.30;;;2.63;;
20008;SDS011;10165;42.662;23.260;2023-05-29T07:44:29;2.53;;;2.27;;
20008;SDS011;10165;42.662;23.260;2023-05-29T07:46:56;5.40;;;2.10;;
20008;SDS011;10165;42.662;23.260;2023-05-29T07:49:23;5.10;;;2.13;;
20008;SDS011;10165;42.662;23.260;2023-05-29T07:51:50;3.23;;;2.40;;
20008;SDS011;10165;42.662;23.260;2023-05-29T07:54:17;3.17;;;2.67;;
20008;SDS011;10165;42.662;23.260;2023-05-29T07:56:46;3.17;;;2.10;;
20008;SDS011;10165;42.662;23.260;2023-05-29T07:59:13;3.80;;;2.30;;
20008;SDS011;10165;42.662;23.260;2023-05-29T08:01:41;6.37;;;2.20;;
20008;SDS011;10165;42.662;23.260;2023-05-29T08:04:07;6.07;;;2.53;;
20008;SDS011;10165;42.662;23.260;2023-05-29T08:06:34;3.33;;;2.50;;
20008;SDS011;10165;42.662;23.260;2023-05-29T08:09:02;4.00;;;2.80;;
20008;SDS011;10165;42.662;23.260;2023-05-29T08:11:29;3.10;;;2.43;;
20008;SDS011;10165;42.662;23.260;2023-05-29T08:13:56;4.53;;;2.40;;
20008;SDS011;10165;42.662;23.260;2023-05-29T08:16:23;2.20;;;2.00;;
20008;SDS011;10165;42.662;23.260;2023-05-29T08:18:50;2.93;;;2.50;;
20008;SDS011;10165;42.662;23.260;2023-05-29T08:21:17;6.20;;;2.77;;
20008;SDS011;10165;42.662;23.260;2023-05-29T08:23:44;5.07;;;2.67;;
20008;SDS011;10165;42.662;23.260;2023-05-29T08:26:11;3.43;;;2.47;;
20008;SDS011;10165;42.662;23.260;2023-05-29T08:28:39;6.63;;;2.70;;
20008;SDS011;10165;42.662;23.260;2023-05-29T08:31:08;4.87;;;2.30;;
20008;SDS011;10165;42.662;23.260;2023-05-29T08:33:35;4.07;;;2.40;;
20008;SDS011;10165;42.662;23.260;2023-05-29T08:36:03;4.40;;;2.60;;
20008;SDS011;10165;42.662;23.260;2023-05-29T08:38:30;5.77;;;2.53;;
20008;SDS011;10165;42.662;23.260;2023-05-29T08:40:56;3.23;;;1.90;;
20008;SDS011;10165;42.662;23.260;2023-05-29T08:43:30;8.03;;;2.30;;
20008;SDS011;10165;42.662;23.260;2023-05-29T08:46:00;5.93;;;2.33;;
20008;SDS011;10165;42.662;23.260;2023-05-29T08:48:29;2.87;;;1.90;;
20008;SDS011;10165;42.662;23.260;2023-05-29T08:50:57;5.27;;;2.70;;
20008;SDS011;10165;42.662;23.260;2023-05-29T08:53:25;3.70;;;1.90;;
20008;SDS011;10165;42.662;23.260;2023-05-29T08:55:52;2.90;;;2.47;;
20008;SDS011;10165;42.662;23.260;2023-05-29T08:58:20;2.63;;;2.20;;
20008;SDS011;10165;42.662;23.260;2023-05-29T09:00:48;3.17;;;2.40;;
20008;SDS011;10165;42.662;23.260;2023-05-29T09:03:16;2.50;;;2.10;;
20008;SDS011;10165;42.662;23.260;2023-05-29T09:05:44;5.03;;;2.47;;
20008;SDS011;10165;42.662;23.260;2023-05-29T09:08:11;4.27;;;2.40;;
20008;SDS011;10165;42.662;23.260;2023-05-29T09:10:39;6.70;;;2.40;;
20008;SDS011;10165;42.662;23.260;2023-05-29T09:13:11;5.00;;;2.20;;
20008;SDS011;10165;42.662;23.260;2023-05-29T09:15:40;4.37;;;3.40;;
20008;SDS011;10165;42.662;23.260;2023-05-29T09:18:10;3.57;;;2.07;;
20008;SDS011;10165;42.662;23.260;2023-05-29T09:20:38;2.67;;;2.20;;
20008;SDS011;10165;42.662;23.260;2023-05-29T09:23:06;6.53;;;2.73;;
20008;SDS011;10165;42.662;23.260;2023-05-29T09:25:38;6.80;;;2.67;;
20008;SDS011;10165;42.662;23.260;2023-05-29T09:28:08;4.87;;;2.80;;
20008;SDS011;10165;42.662;23.260;2023-05-29T09:30:43;2.90;;;2.47;;
20008;SDS011;10165;42.662;23.260;2023-05-29T09:33:11;4.23;;;2.40;;
20008;SDS011;10165;42.662;23.260;2023-05-29T09:35:43;2.87;;;2.57;;
20008;SDS011;10165;42.662;23.260;2023-05-29T09:38:12;3.13;;;2.40;;
20008;SDS011;10165;42.662;23.260;2023-05-29T09:40:59;3.17;;;2.40;;
20008;SDS011;10165;42.662;23.260;2023-05-29T09:43:31;4.23;;;2.50;;
20008;SDS011;10165;42.662;23.260;2023-05-29T09:46:00;5.67;;;2.87;;
20008;SDS011;10165;42.662;23.260;2023-05-29T09:48:28;4.23;;;2.60;;
20008;SDS011;10165;42.662;23.260;2023-05-29T09:50:55;3.33;;;2.53;;
20008;SDS011;10165;42.662;23.260;2023-05-29T09:53:25;4.07;;;2.60;;
20008;SDS011;10165;42.662;23.260;2023-05-29T09:55:53;4.17;;;2.47;;
20008;SDS011;10165;42.662;23.260;2023-05-29T09:58:24;2.57;;;2.37;;
20008;SDS011;10165;42.662;23.260;2023-05-29T10:00:52;2.40;;;2.20;;
20008;SDS011;10165;42.662;23.260;2023-05-29T10:03:19;3.10;;;2.73;;
20008;SDS011;10165;42.662;23.260;2023-05-29T10:05:52;4.60;;;2.80;;
20008;SDS011;10165;42.662;23.260;2023-05-29T10:08:23;7.50;;;2.90;;
20008;SDS011;10165;42.662;23.260;2023-05-29T10:10:54;3.57;;;2.40;;
20008;SDS011;10165;42.662;23.260;2023-05-29T10:13:29;2.73;;;2.37;;
20008;SDS011;10165;42.662;23.260;2023-05-29T10:16:00;6.53;;;2.73;;
20008;SDS011;10165;42.662;23.260;2023-05-29T10:21:21;3.70;;;2.30;;
20008;SDS011;10165;42.662;23.260;2023-05-29T10:23:49;4.93;;;3.10;;
20008;SDS011;10165;42.662;23.260;2023-05-29T10:31:32;3.57;;;2.60;;
20008;SDS011;10165;42.662;23.260;2023-05-29T10:36:45;4.90;;;2.70;;
20008;SDS011;10165;42.662;23.260;2023-05-29T10:39:22;2.83;;;2.50;;
20008;SDS011;10165;42.662;23.260;2023-05-29T10:41:49;3.60;;;2.57;;
20008;SDS011;10165;42.662;23.260;2023-05-29T10:49:25;5.50;;;2.63;;
20008;SDS011;10165;42.662;23.260;2023-05-29T10:51:52;3.93;;;2.20;;
20008;SDS011;10165;42.662;23.260;2023-05-29T10:54:22;11.43;;;2.50;;
20008;SDS011;10165;42.662;23.260;2023-05-29T10:57:02;4.27;;;2.93;;
20008;SDS011;10165;42.662;23.260;2023-05-29T10:59:29;2.63;;;2.40;;
20008;SDS011;10165;42.662;23.260;2023-05-29T11:02:03;6.80;;;2.70;;
20008;SDS011;10165;42.662;23.260;2023-05-29T11:04:31;3.40;;;2.67;;
20008;SDS011;10165;42.662;23.260;2023-05-29T11:06:58;5.67;;;2.70;;
20008;SDS011;10165;42.662;23.260;2023-05-29T11:09:26;4.17;;;2.43;;
20008;SDS011;10165;42.662;23.260;2023-05-29T11:12:13;2.67;;;2.43;;
20008;SDS011;10165;42.662;23.260;2023-05-29T11:14:47;3.70;;;2.87;;
20008;SDS011;10165;42.662;23.260;2023-05-29T11:17:30;3.03;;;2.73;;
20008;SDS011;10165;42.662;23.260;2023-05-29T11:20:00;4.83;;;3.00;;
20008;SDS011;10165;42.662;23.260;2023-05-29T11:22:34;3.60;;;2.67;;
20008;SDS011;10165;42.662;23.260;2023-05-29T11:25:20;6.17;;;3.43;;
20008;SDS011;10165;42.662;23.260;2023-05-29T11:27:47;7.23;;;2.90;;
20008;SDS011;10165;42.662;23.260;2023-05-29T11:30:14;4.00;;;2.67;;
20008;SDS011;10165;42.662;23.260;2023-05-29T11:32:40;5.43;;;3.00;;
20008;SDS011;10165;42.662;23.260;2023-05-29T11:35:11;11.30;;;3.00;;
20008;SDS011;10165;42.662;23.260;2023-05-29T11:37:43;2.73;;;2.43;;
20008;SDS011;10165;42.662;23.260;2023-05-29T11:40:13;3.87;;;2.57;;
20008;SDS011;10165;42.662;23.260;2023-05-29T11:42:44;5.53;;;2.63;;
20008;SDS011;10165;42.662;23.260;2023-05-29T11:45:19;4.80;;;2.90;;
20008;SDS011;10165;42.662;23.260;2023-05-29T11:50:19;5.43;;;2.80;;
20008;SDS011;10165;42.662;23.260;2023-05-29T11:52:47;4.50;;;2.97;;
20008;SDS011;10165;42.662;23.260;2023-05-29T11:55:14;4.07;;;2.63;;
20008;SDS011;10165;42.662;23.260;2023-05-29T11:57:41;3.33;;;2.53;;
20008;SDS011;10165;42.662;23.260;2023-05-29T12:00:08;4.93;;;2.90;;
20008;SDS011;10165;42.662;23.260;2023-05-29T12:02:38;3.13;;;2.83;;
20008;SDS011;10165;42.662;23.260;2023-05-29T12:05:05;2.90;;;2.57;;
20008;SDS011;10165;42.662;23.260;2023-05-29T12:07:35;3.80;;;2.10;;
20008;SDS011;10165;42.662;23.260;2023-05-29T12:10:12;5.30;;;2.60;;
20008;SDS011;10165;42.662;23.260;2023-05-29T12:12:40;2.87;;;2.47;;
20008;SDS011;10165;42.662;23.260;2023-05-29T12:15:08;3.73;;;2.67;;
20008;SDS011;10165;42.662;23.260;2023-05-29T12:17:35;6.07;;;2.73;;
20008;SDS011;10165;42.662;23.260;2023-05-29T12:20:03;9.50;;;3.10;;
20008;SDS011;10165;42.662;23.260;2023-05-29T12:22:33;4.43;;;2.83;;
20008;SDS011;10165;42.662;23.260;2023-05-29T12:25:08;5.33;;;2.40;;
20008;SDS011;10165;42.662;23.260;2023-05-29T12:27:44;3.37;;;2.60;;
20008;SDS011;10165;42.662;23.260;2023-05-29T12:30:20;2.63;;;2.43;;
20008;SDS011;10165;42.662;23.260;2023-05-29T12:32:59;3.80;;;3.10;;
20008;SDS011;10165;42.662;23.260;2023-05-29T12:35:27;3.70;;;2.73;;
20008;SDS011;10165;42.662;23.260;2023-05-29T12:38:02;7.60;;;3.20;;
20008;SDS011;10165;42.662;23.260;2023-05-29T12:40:32;6.53;;;3.13;;
20008;SDS011;10165;42.662;23.260;2023-05-29T12:43:04;4.07;;;3.13;;
20008;SDS011;10165;42.662;23.260;2023-05-29T12:45:33;5.53;;;3.27;;
20008;SDS011;10165;42.662;23.260;2023-05-29T12:48:04;3.50;;;2.67;;
20008;SDS011;10165;42.662;23.260;2023-05-29T12:50:33;7.27;;;3.37;;
20008;SDS011;10165;42.662;23.260;2023-05-29T12:55:35;10.27;;;3.53;;
20008;SDS011;10165;42.662;23.260;2023-05-29T12:58:06;8.13;;;3.83;;
20008;SDS011;10165;42.662;23.260;2023-05-29T13:00:41;8.20;;;3.93;;
20008;SDS011;10165;42.662;23.260;2023-05-29T13:03:09;9.13;;;4.10;;
20008;SDS011;10165;42.662;23.260;2023-05-29T13:05:37;6.77;;;3.60;;
20008;SDS011;10165;42.662;23.260;2023-05-29T13:08:04;7.83;;;4.40;;
20008;SDS011;10165;42.662;23.260;2023-05-29T13:10:33;6.30;;;4.77;;
20008;SDS011;10165;42.662;23.260;2023-05-29T13:13:03;12.77;;;4.70;;
20008;SDS011;10165;42.662;23.260;2023-05-29T13:15:30;4.40;;;3.27;;
20008;SDS011;10165;42.662;23.260;2023-05-29T13:17:59;6.17;;;3.77;;
20008;SDS011;10165;42.662;23.260;2023-05-29T13:20:26;3.87;;;3.47;;
20008;SDS011;10165;42.662;23.260;2023-05-29T13:22:53;5.60;;;3.30;;
20008;SDS011;10165;42.662;23.260;2023-05-29T13:25:20;6.73;;;3.57;;
20008;SDS011;10165;42.662;23.260;2023-05-29T13:27:48;4.83;;;3.20;;
20008;SDS011;10165;42.662;23.260;2023-05-29T13:30:15;5.90;;;3.70;;
20008;SDS011;10165;42.662;23.260;2023-05-29T13:32:43;3.30;;;2.83;;
20008;SDS011;10165;42.662;23.260;2023-05-29T13:35:10;3.53;;;3.07;;
20008;SDS011;10165;42.662;23.260;2023-05-29T13:37:37;4.00;;;3.07;;
20008;SDS011;10165;42.662;23.260;2023-05-29T13:40:04;5.97;;;3.27;;
20008;SDS011;10165;42.662;23.260;2023-05-29T13:42:32;7.07;;;2.97;;
20008;SDS011;10165;42.662;23.260;2023-05-29T13:45:00;3.93;;;2.83;;
20008;SDS011;10165;42.662;23.260;2023-05-29T13:47:27;4.23;;;3.20;;
20008;SDS011;10165;42.662;23.260;2023-05-29T13:49:58;3.17;;;2.67;;
20008;SDS011;10165;42.662;23.260;2023-05-29T13:52:26;4.70;;;3.50;;
20008;SDS011;10165;42.662;23.260;2023-05-29T13:54:53;3.80;;;3.13;;
20008;SDS011;10165;42.662;23.260;2023-05-29T13:57:20;5.07;;;3.27;;
20008;SDS011;10165;42.662;23.260;2023-05-29T13:59:47;5.77;;;3.27;;
20008;SDS011;10165;42.662;23.260;2023-05-29T14:02:13;5.37;;;2.80;;
20008;SDS011;10165;42.662;23.260;2023-05-29T14:04:41;4.47;;;2.50;;
20008;SDS011;10165;42.662;23.260;2023-05-29T14:07:09;4.50;;;2.83;;
20008;SDS011;10165;42.662;23.260;2023-05-29T14:09:35;3.67;;;3.10;;
20008;SDS011;10165;42.662;23.260;2023-05-29T14:12:02;2.73;;;2.40;;
20008;SDS011;10165;42.662;23.260;2023-05-29T14:14:29;4.87;;;2.67;;
20008;SDS011;10165;42.662;23.260;2023-05-29T14:16:56;6.07;;;3.13;;
20008;SDS011;10165;42.662;23.260;2023-05-29T14:19:24;5.33;;;3.40;;
20008;SDS011;10165;42.662;23.260;2023-05-29T14:21:52;4.07;;;3.20;;
20008;SDS011;10165;42.662;23.260;2023-05-29T14:24:18;3.10;;;2.10;;
20008;SDS011;10165;42.662;23.260;2023-05-29T14:26:45;2.90;;;2.00;;
20008;SDS011;10165;42.662;23.260;2023-05-29T14:29:14;4.97;;;1.40;;
20008;SDS011;10165;42.662;23.260;2023-05-29T14:31:41;5.20;;;1.80;;
20008;SDS011;10165;42.662;23.260;2023-05-29T14:34:10;2.57;;;2.07;;
20008;SDS011;10165;42.662;23.260;2023-05-29T14:36:37;1.37;;;1.20;;
20008;SDS011;10165;42.662;23.260;2023-05-29T14:39:04;3.07;;;1.67;;
20008;SDS011;10165;42.662;23.260;2023-05-29T14:41:32;1.77;;;1.53;;
20008;SDS011;10165;42.662;23.260;2023-05-29T14:44:01;3.17;;;1.77;;
20008;SDS011;10165;42.662;23.260;2023-05-29T14:46:28;2.53;;;1.70;;
20008;SDS011;10165;42.662;23.260;2023-05-29T14:48:58;1.70;;;1.53;;
20008;SDS011;10165;42.662;23.260;2023-05-29T14:51:26;5.43;;;2.00;;
20008;SDS011;10165;42.662;23.260;2023-05-29T14:53:53;2.20;;;1.80;;
20008;SDS011;10165;42.662;23.260;2023-05-29T14:56:21;1.97;;;1.60;;
20008;SDS011;10165;42.662;23.260;2023-05-29T14:58:48;1.90;;;1.43;;
20008;SDS011;10165;42.662;23.260;2023-05-29T15:01:17;6.40;;;2.00;;
20008;SDS011;10165;42.662;23.260;2023-05-29T15:03:44;2.70;;;1.97;;
20008;SDS011;10165;42.662;23.260;2023-05-29T15:06:12;1.93;;;1.77;;
20008;SDS011;10165;42.662;23.260;2023-05-29T15:08:39;2.17;;;1.73;;
20008;SDS011;10165;42.662;23.260;2023-05-29T15:11:08;3.33;;;1.70;;